Time;durP1;ratioP1;P1;durP2;ratioP2;P2;SDS_P1;SDS_P2;PMS_P1;PMS_P2;Temp;Humidity;BMP_temperature;BMP_pressure;BME280_temperature;BME280_humidity;BME280_pressure;Samples;Min_cycle;Max_cycle;Signal;HPM_P1;HPM_P2
2022/06/23 00:02:21;;;;;;;5.65;1.90;;;;;;;26.35;40.02;99056.31;4485759;31;34696;-66
2022/06/23 00:04:50;;;;;;;7.62;2.42;;;;;;;26.23;39.84;99064.53;4488735;31;34715;-64
2022/06/23 00:07:37;;;;;;;9.18;2.15;;;;;;;26.23;39.62;99076.34;4494958;31;33496;-67
2022/06/23 00:10:21;;;;;;;5.43;2.30;;;;;;;26.19;39.56;99074.28;4495852;31;33742;-68
2022/06/23 00:12:49;;;;;;;2.72;1.50;;;;;;;26.19;39.20;99074.28;4494756;31;34852;-65
2022/06/23 00:15:37;;;;;;;4.35;1.90;;;;;;;26.09;39.10;99074.84;4500556;31;33554;-66
2022/06/23 00:18:13;;;;;;;3.62;1.85;;;;;;;26.09;39.03;99077.56;4497371;31;32993;-65
2022/06/23 00:20:59;;;;;;;5.47;1.85;;;;;;;26.11;39.12;99082.84;4484295;31;33972;-67
2022/06/23 00:23:33;;;;;;;3.75;1.92;;;;;;;25.85;40.31;99084.03;4489451;31;32441;-65
2022/06/23 00:26:06;;;;;;;5.60;2.05;;;;;;;26.06;39.46;99083.53;4497882;31;33322;-66
2022/06/23 00:28:36;;;;;;;4.25;2.40;;;;;;;26.06;39.37;99091.75;4498837;31;33286;-66
2022/06/23 00:31:06;;;;;;;3.35;2.08;;;;;;;25.90;40.42;99114.31;4488077;31;33280;-65
2022/06/23 00:33:39;;;;;;;6.32;2.35;;;;;;;25.12;40.97;99110.25;4501611;31;34657;-64
2022/06/23 00:36:36;;;;;;;4.62;1.90;;;;;;;25.04;39.96;99103.16;4512251;31;33316;-66
2022/06/23 00:39:05;;;;;;;4.07;2.03;;;;;;;25.35;38.08;99104.13;4487135;31;35043;-66
2022/06/23 00:41:36;;;;;;;4.75;2.35;;;;;;;25.12;37.74;99096.56;4485050;31;35138;-64
2022/06/23 00:44:06;;;;;;;3.75;1.90;;;;;;;25.22;36.03;99107.00;4499414;31;33829;-66
2022/06/23 00:46:43;;;;;;;4.00;1.50;;;;;;;25.07;35.66;99104.56;4486771;31;33348;-64
2022/06/23 00:49:54;;;;;;;6.37;2.12;;;;;;;25.31;34.89;99116.63;4494967;31;34356;-64
2022/06/23 00:52:31;;;;;;;5.35;1.77;;;;;;;25.09;34.50;99116.97;4474143;31;35077;-67
2022/06/23 00:55:02;;;;;;;3.65;1.60;;;;;;;24.93;35.05;99122.19;4498741;31;33868;-65
2022/06/23 00:57:42;;;;;;;3.72;1.60;;;;;;;24.78;34.83;99123.38;4489302;31;33538;-68
2022/06/23 01:00:34;;;;;;;4.05;1.65;;;;;;;24.84;35.29;99127.91;4490076;31;33901;-65
2022/06/23 01:03:33;;;;;;;3.30;1.73;;;;;;;24.76;35.55;99135.59;4497534;31;32808;-68
2022/06/23 01:06:07;;;;;;;5.15;2.00;;;;;;;24.95;35.57;99140.06;4482947;31;33986;-65
2022/06/23 01:08:57;;;;;;;3.95;1.52;;;;;;;24.84;35.17;99130.66;4496049;31;33300;-65
2022/06/23 01:11:38;;;;;;;3.10;1.75;;;;;;;25.00;35.14;99136.66;4491960;31;33871;-63
2022/06/23 01:14:18;;;;;;;2.45;1.60;;;;;;;25.10;35.89;99131.50;4500467;31;33990;-64
2022/06/23 01:17:02;;;;;;;3.90;1.85;;;;;;;25.28;36.01;99128.03;4490009;31;33341;-65
2022/06/23 01:19:30;;;;;;;3.30;2.00;;;;;;;25.29;36.67;99141.47;4500103;31;33149;-65
2022/06/23 01:22:01;;;;;;;3.47;1.80;;;;;;;25.43;36.96;99135.91;4498739;31;33975;-67
2022/06/23 01:24:38;;;;;;;2.83;1.62;;;;;;;25.49;38.40;99134.97;4488855;31;32538;-66
2022/06/23 01:27:25;;;;;;;4.62;1.90;;;;;;;25.43;36.85;99131.25;4499682;31;32421;-66
2022/06/23 01:29:57;;;;;;;3.90;2.00;;;;;;;25.41;39.12;99138.00;4499099;31;34412;-65
2022/06/23 01:32:41;;;;;;;3.72;1.87;;;;;;;25.17;40.86;99143.31;4496105;31;31985;-64
2022/06/23 01:35:27;;;;;;;4.87;2.28;;;;;;;25.19;41.66;99143.06;4489608;31;34899;-65
2022/06/23 01:37:59;;;;;;;3.58;1.83;;;;;;;25.14;42.40;99148.37;4495473;31;33226;-64
2022/06/23 01:40:32;;;;;;;3.83;1.87;;;;;;;25.10;41.52;99150.66;4488125;31;33354;-66
2022/06/23 01:43:18;;;;;;;3.80;2.00;;;;;;;25.07;42.22;99141.03;4497283;31;33671;-65
2022/06/23 01:45:50;;;;;;;3.22;1.80;;;;;;;25.30;41.93;99140.44;4497266;31;33988;-66
2022/06/23 01:51:28;;;;;;;3.20;1.48;;;;;;;25.25;41.77;99117.53;4492637;31;33066;-63
2022/06/23 01:54:12;;;;;;;4.75;2.05;;;;;;;24.06;41.41;99125.44;4491259;31;34901;-62
2022/06/23 01:57:03;;;;;;;3.40;1.60;;;;;;;23.89;41.85;99136.00;4490818;31;33863;-63
2022/06/23 01:59:34;;;;;;;4.75;2.03;;;;;;;24.20;41.71;99125.34;4481489;31;34814;-67
2022/06/23 02:02:25;;;;;;;3.95;1.77;;;;;;;24.30;41.21;99129.31;4492186;31;33289;-66
2022/06/23 02:05:04;;;;;;;6.53;2.00;;;;;;;24.22;41.24;99129.56;4494490;31;33528;-64
2022/06/23 02:07:43;;;;;;;4.93;2.08;;;;;;;24.48;41.17;99139.53;4494027;31;33994;-65
2022/06/23 02:10:28;;;;;;;3.72;2.10;;;;;;;24.21;42.82;99144.31;4486520;31;34773;-67
2022/06/23 02:13:07;;;;;;;3.95;1.80;;;;;;;24.31;43.65;99136.47;4496624;31;33569;-65
2022/06/23 02:15:47;;;;;;;3.97;1.92;;;;;;;24.44;44.37;99137.47;4494580;31;34664;-65
2022/06/23 02:18:42;;;;;;;3.65;1.75;;;;;;;24.56;44.61;99136.56;4496635;31;35246;-61
2022/06/23 02:21:39;;;;;;;6.20;2.10;;;;;;;24.60;44.82;99140.53;4498112;31;33839;-62
2022/06/23 02:24:34;;;;;;;4.50;1.95;;;;;;;24.47;45.25;99143.34;4484638;31;32788;-64
2022/06/23 02:27:19;;;;;;;5.47;2.20;;;;;;;24.53;44.41;99131.53;4495935;31;32382;-62
2022/06/23 02:30:02;;;;;;;;;;;;;;;24.55;44.43;99129.41;4498705;31;35003;-62
2022/06/23 02:32:49;;;;;;;4.85;2.10;;;;;;;24.45;44.20;99133.69;4483186;32;33902;-62
2022/06/23 02:35:33;;;;;;;3.95;1.80;;;;;;;24.55;45.34;99131.28;4482862;31;34487;-63
2022/06/23 02:38:08;;;;;;;4.90;2.00;;;;;;;24.56;45.92;99139.31;4489040;31;34419;-64
2022/06/23 02:41:07;;;;;;;4.47;2.05;;;;;;;24.43;46.34;99150.31;4482447;32;34823;-63
2022/06/23 02:43:53;;;;;;;4.35;2.20;;;;;;;24.50;46.34;99163.97;4484597;31;33720;-61
2022/06/23 02:47:03;;;;;;;4.05;2.20;;;;;;;24.40;46.85;99167.12;4495258;31;31903;-63
2022/06/23 02:49:55;;;;;;;4.82;2.53;;;;;;;24.44;46.56;99173.88;4491536;31;33539;-61
2022/06/23 02:52:39;;;;;;;4.25;2.00;;;;;;;24.35;46.91;99172.41;4496222;31;33870;-62
2022/06/23 02:55:27;;;;;;;3.85;2.00;;;;;;;24.31;47.24;99168.44;4497478;31;33294;-62
2022/06/23 02:57:55;;;;;;;5.30;2.20;;;;;;;24.32;46.91;99172.84;4497000;31;33141;-65
2022/06/23 03:00:34;;;;;;;5.72;2.12;;;;;;;24.22;46.50;99189.72;4494484;31;33736;-64
2022/06/23 03:03:21;;;;;;;4.40;2.22;;;;;;;24.25;46.24;99194.75;4489072;31;33035;-66
2022/06/23 03:06:10;;;;;;;4.18;2.00;;;;;;;24.18;46.57;99193.94;4495183;31;34878;-63
2022/06/23 03:08:53;;;;;;;5.80;2.40;;;;;;;24.11;47.29;99185.78;4497656;31;33306;-65
2022/06/23 03:11:51;;;;;;;3.85;2.05;;;;;;;24.17;47.66;99189.50;4497285;31;35125;-66
2022/06/23 03:14:54;;;;;;;4.07;2.17;;;;;;;24.11;48.23;99193.13;4496570;31;33739;-64
2022/06/23 03:17:33;;;;;;;3.72;2.15;;;;;;;24.09;47.94;99209.75;4498364;31;34849;-62
2022/06/23 03:20:02;;;;;;;4.03;2.20;;;;;;;24.30;47.09;99210.50;4497464;31;34176;-63
2022/06/23 03:23:06;;;;;;;6.85;2.30;;;;;;;24.21;46.55;99207.19;4492629;31;34748;-64
2022/06/23 03:25:48;;;;;;;5.12;2.12;;;;;;;24.22;46.36;99211.59;4463322;31;34019;-63
2022/06/23 03:28:22;;;;;;;6.28;2.35;;;;;;;24.40;45.89;99213.63;4494360;31;33771;-64
2022/06/23 03:31:07;;;;;;;3.93;2.23;;;;;;;24.39;45.66;99201.81;4493388;31;32354;-67
2022/06/23 03:33:40;;;;;;;;;;;;;;;24.35;46.54;99197.03;4497377;31;33644;-66
2022/06/23 03:36:30;;;;;;;5.03;2.12;;;;;;;24.25;47.15;99207.59;4495893;31;32929;-65
2022/06/23 03:42:28;;;;;;;4.93;2.30;;;;;;;24.28;47.28;99210.72;4494427;31;34468;-68
2022/06/23 03:45:11;;;;;;;5.62;2.10;;;;;;;24.32;47.26;99217.44;4494853;31;33879;-65
2022/06/23 03:47:46;;;;;;;3.92;1.92;;;;;;;24.27;47.59;99213.66;4498006;31;34748;-71
2022/06/23 03:50:21;;;;;;;4.20;1.80;;;;;;;24.32;47.78;99219.34;4499528;31;33881;-63
2022/06/23 03:52:57;;;;;;;4.82;1.90;;;;;;;24.42;47.46;99221.63;4495823;31;33405;-66
2022/06/23 03:55:37;;;;;;;5.80;2.33;;;;;;;24.44;46.08;99230.47;4483260;32;33607;-66
2022/06/23 03:58:15;;;;;;;5.68;2.35;;;;;;;24.24;45.83;99238.69;4484345;31;32528;-66
2022/06/23 04:00:57;;;;;;;8.05;2.85;;;;;;;24.29;45.77;99237.00;4495765;31;33888;-66
2022/06/23 04:03:31;;;;;;;3.35;1.98;;;;;;;24.15;45.36;99238.94;4486461;31;34199;-65
2022/06/23 04:06:09;;;;;;;4.90;2.08;;;;;;;24.28;45.17;99240.81;4482902;31;33675;-66
2022/06/23 04:08:44;;;;;;;3.47;2.10;;;;;;;24.37;44.55;99244.97;4497177;31;33898;-67
2022/06/23 04:14:02;;;;;;;4.10;2.00;;;;;;;24.34;44.88;99247.31;4496970;31;33245;-66
2022/06/23 04:16:31;;;;;;;4.62;1.90;;;;;;;24.47;44.84;99246.47;4489704;31;32662;-63
2022/06/23 04:19:04;;;;;;;2.47;1.58;;;;;;;24.65;44.50;99254.78;4495932;31;33979;-64
2022/06/23 04:21:32;;;;;;;3.80;2.00;;;;;;;24.70;42.68;99254.13;4497788;31;34480;-66
2022/06/23 04:24:03;;;;;;;4.97;2.17;;;;;;;24.61;42.93;99256.28;4496892;31;34291;-64
2022/06/23 04:26:38;;;;;;;3.33;2.00;;;;;;;24.67;43.87;99260.88;4490064;31;34192;-62
2022/06/23 04:29:11;;;;;;;4.00;1.75;;;;;;;24.79;43.30;99253.66;4499399;31;33378;-64
2022/06/23 04:31:41;;;;;;;6.45;2.50;;;;;;;24.88;42.79;99257.00;4497959;31;33798;-63
2022/06/23 04:34:19;;;;;;;4.87;2.00;;;;;;;24.87;42.31;99263.50;4490487;31;34264;-64
2022/06/23 04:36:47;;;;;;;4.95;2.08;;;;;;;24.94;42.31;99263.47;4498241;31;33646;-61
2022/06/23 04:39:38;;;;;;;3.17;1.70;;;;;;;24.83;41.33;99263.09;4497737;31;35376;-63
2022/06/23 04:42:16;;;;;;;5.50;1.80;;;;;;;25.02;41.00;99268.69;4485714;31;34655;-63
2022/06/23 04:44:46;;;;;;;3.25;1.60;;;;;;;25.10;40.93;99271.16;4482286;32;34293;-62
2022/06/23 04:47:18;;;;;;;3.90;1.85;;;;;;;25.13;41.12;99273.47;4483474;31;32486;-61
2022/06/23 04:50:09;;;;;;;4.78;1.77;;;;;;;25.27;39.72;99285.22;4482522;31;32792;-64
2022/06/23 04:52:41;;;;;;;4.68;1.83;;;;;;;25.28;41.44;99286.88;4494636;31;34832;-61
2022/06/23 04:55:17;;;;;;;3.92;1.95;;;;;;;25.25;41.43;99288.16;4496906;31;34427;-62
2022/06/23 04:58:04;;;;;;;2.90;1.58;;;;;;;25.07;39.57;99282.53;4498942;31;33715;-62
2022/06/23 05:00:49;;;;;;;4.45;2.10;;;;;;;25.37;40.41;99291.03;4496304;31;34966;-63
2022/06/23 05:03:47;;;;;;;4.55;1.83;;;;;;;25.43;40.98;99292.03;4488967;31;33784;-62
2022/06/23 05:06:33;;;;;;;3.75;1.90;;;;;;;25.64;39.94;99297.13;4498841;31;34473;-62
2022/06/23 05:09:24;;;;;;;5.18;2.10;;;;;;;25.57;40.33;99299.09;4482295;31;33781;-62
2022/06/23 05:12:06;;;;;;;4.10;1.80;;;;;;;25.26;36.68;99298.03;4497006;31;33971;-64
2022/06/23 05:14:47;;;;;;;4.72;1.80;;;;;;;24.91;34.69;99310.44;4481587;31;35047;-61
2022/06/23 05:17:22;;;;;;;2.65;1.50;;;;;;;24.97;34.05;99313.13;4498586;31;34281;-65
2022/06/23 05:19:54;;;;;;;5.45;1.87;;;;;;;24.45;35.50;99312.31;4498172;31;33913;-62
2022/06/23 05:22:26;;;;;;;6.45;1.83;;;;;;;24.88;34.75;99322.69;4496682;31;33761;-63
2022/06/23 05:24:56;;;;;;;4.10;1.80;;;;;;;24.90;35.59;99327.91;4496497;31;33866;-62
2022/06/23 05:27:31;;;;;;;5.57;1.75;;;;;;;24.94;34.91;99318.22;4486697;31;33448;-65
2022/06/23 05:30:25;;;;;;;6.12;2.30;;;;;;;25.07;33.83;99329.09;4482989;31;33716;-62
2022/06/23 05:33:21;;;;;;;5.32;1.80;;;;;;;25.14;33.99;99327.22;4495061;31;34072;-63
2022/06/23 05:35:51;;;;;;;6.07;2.33;;;;;;;25.09;33.72;99321.50;4484518;31;33914;-64
2022/06/23 05:38:36;;;;;;;4.03;1.60;;;;;;;24.21;32.71;99326.66;4482539;31;34442;-61
2022/06/23 05:41:25;;;;;;;3.25;2.03;;;;;;;24.77;32.60;99332.41;4481172;31;34677;-63
2022/06/23 05:43:57;;;;;;;3.42;1.67;;;;;;;24.94;32.84;99340.94;4493803;31;32938;-61
2022/06/23 05:46:27;;;;;;;3.85;1.83;;;;;;;24.85;33.22;99347.75;4494643;31;32501;-62
2022/06/23 05:49:00;;;;;;;3.33;1.85;;;;;;;24.92;32.61;99342.25;4485437;31;31332;-62
2022/06/23 05:51:40;;;;;;;3.47;1.98;;;;;;;24.68;32.97;99352.84;4484260;31;35125;-61
2022/06/23 05:54:16;;;;;;;5.70;1.98;;;;;;;25.17;33.02;99347.81;4491047;31;34950;-62
2022/06/23 05:56:43;;;;;;;;;;;;;;;25.07;31.94;99345.50;4488276;31;32376;-63
2022/06/23 05:59:20;;;;;;;4.05;1.60;;;;;;;25.01;32.06;99354.63;4492792;31;32153;-62
2022/06/23 06:01:56;;;;;;;4.60;1.87;;;;;;;25.44;30.97;99349.34;4499116;31;34895;-62
2022/06/23 06:04:46;;;;;;;4.40;1.52;;;;;;;25.54;31.61;99355.16;4493797;31;34022;-64
2022/06/23 06:07:15;;;;;;;3.75;1.65;;;;;;;25.51;31.01;99349.28;4485202;31;34563;-65
2022/06/23 06:09:43;;;;;;;4.25;1.83;;;;;;;25.39;29.78;99348.31;4491179;31;32431;-64
2022/06/23 06:12:18;;;;;;;3.70;1.58;;;;;;;25.20;31.04;99363.81;4497849;31;34636;-61
2022/06/23 06:15:15;;;;;;;3.55;1.83;;;;;;;25.59;31.35;99360.00;4498447;31;32719;-62
2022/06/23 06:17:43;;;;;;;5.78;2.08;;;;;;;26.12;31.29;99353.25;4490920;31;32694;-62
2022/06/23 06:20:12;;;;;;;3.70;1.60;;;;;;;26.25;29.97;99364.09;4499225;31;34117;-65
2022/06/23 06:22:52;;;;;;;4.37;1.75;;;;;;;26.29;30.20;99362.59;4500401;31;33952;-61
2022/06/23 06:25:27;;;;;;;3.12;1.67;;;;;;;26.39;28.98;99364.84;4498393;31;34925;-61
2022/06/23 06:27:57;;;;;;;5.57;1.60;;;;;;;26.38;30.25;99368.63;4499893;31;33817;-63
2022/06/23 06:30:30;;;;;;;4.65;2.05;;;;;;;26.16;29.24;99366.31;4484072;31;32663;-61
2022/06/23 06:32:58;;;;;;;4.75;1.67;;;;;;;26.23;29.58;99366.25;4473712;31;33890;-63
2022/06/23 06:35:42;;;;;;;4.40;1.50;;;;;;;25.72;29.72;99368.13;4490061;31;34024;-64
2022/06/23 06:38:13;;;;;;;4.85;1.70;;;;;;;25.65;30.44;99375.56;4485269;32;34691;-62
2022/06/23 06:40:42;;;;;;;3.42;1.80;;;;;;;26.51;29.25;99367.69;4486776;31;33535;-61
2022/06/23 06:43:14;;;;;;;5.07;1.95;;;;;;;26.06;29.51;99365.97;4499269;31;33614;-61
2022/06/23 06:45:42;;;;;;;3.87;1.70;;;;;;;26.42;30.28;99367.09;4497396;31;32773;-64
2022/06/23 06:48:18;;;;;;;3.78;1.50;;;;;;;26.86;27.99;99382.47;4498126;31;33619;-61
2022/06/23 06:50:48;;;;;;;4.35;1.70;;;;;;;26.54;29.09;99380.94;4499229;31;33389;-65
2022/06/23 06:53:22;;;;;;;5.00;1.55;;;;;;;26.87;28.86;99377.81;4485255;32;33665;-62
2022/06/23 06:55:55;;;;;;;4.20;1.70;;;;;;;26.91;28.67;99379.88;4492506;31;34933;-61
2022/06/23 06:58:45;;;;;;;5.72;1.87;;;;;;;26.78;29.34;99384.72;4487044;31;34350;-63
2022/06/23 07:01:19;;;;;;;2.78;1.40;;;;;;;26.48;28.32;99383.56;4487059;31;33101;-61
2022/06/23 07:03:48;;;;;;;3.05;1.67;;;;;;;26.58;27.81;99394.00;4498980;31;33805;-63
2022/06/23 07:06:33;;;;;;;4.22;1.37;;;;;;;25.89;29.12;99397.75;4496789;31;33851;-62
2022/06/23 07:09:13;;;;;;;3.05;1.40;;;;;;;26.65;27.84;99393.94;4484499;31;34073;-61
2022/06/23 07:11:54;;;;;;;8.93;2.12;;;;;;;26.42;28.00;99400.88;4496297;31;33434;-61
2022/06/23 07:14:24;;;;;;;2.80;1.50;;;;;;;26.56;28.46;99396.12;4485126;31;32511;-61
2022/06/23 07:17:02;;;;;;;4.82;1.70;;;;;;;26.51;28.43;99390.47;4500377;31;35348;-61
2022/06/23 07:19:44;;;;;;;3.62;1.62;;;;;;;26.83;28.67;99399.41;4499267;31;34580;-61
2022/06/23 07:22:16;;;;;;;3.20;1.52;;;;;;;26.51;28.79;99401.44;4498191;31;32070;-61
2022/06/23 07:24:48;;;;;;;4.25;2.15;;;;;;;26.27;29.31;99399.56;4497256;31;35126;-64
2022/06/23 07:27:42;;;;;;;4.57;1.75;;;;;;;26.11;29.08;99399.06;4482857;31;33929;-63
2022/06/23 07:30:22;;;;;;;4.03;2.17;;;;;;;26.68;28.25;99408.03;4480957;32;115179;-61
2022/06/23 07:33:05;;;;;;;4.85;1.73;;;;;;;26.87;28.37;99408.00;4482724;31;31984;-61
2022/06/23 07:35:42;;;;;;;7.40;2.00;;;;;;;26.82;29.39;99413.38;4487843;31;33878;-62
2022/06/23 07:38:19;;;;;;;3.78;1.77;;;;;;;27.09;27.91;99417.47;4497881;31;34897;-60
2022/06/23 07:41:07;;;;;;;3.90;1.50;;;;;;;26.77;28.57;99424.19;4499114;31;33703;-64
2022/06/23 07:43:47;;;;;;;5.82;1.98;;;;;;;26.70;28.30;99414.13;4496953;31;34869;-62
2022/06/23 07:46:14;;;;;;;4.28;2.00;;;;;;;26.85;29.71;99418.41;4484120;31;36085;-61
2022/06/23 07:48:42;;;;;;;3.47;1.83;;;;;;;26.95;28.54;99422.28;4480497;31;33292;-62
2022/06/23 07:51:10;;;;;;;5.03;1.70;;;;;;;27.11;28.77;99422.75;4498193;31;34906;-63
2022/06/23 07:53:44;;;;;;;4.05;1.62;;;;;;;27.15;28.65;99424.81;4498015;31;31960;-65
2022/06/23 07:56:16;;;;;;;4.03;1.75;;;;;;;26.72;27.92;99424.88;4494674;31;32468;-63
2022/06/23 07:58:46;;;;;;;2.78;1.60;;;;;;;26.85;27.22;99423.91;4499956;31;35042;-64
2022/06/23 08:01:28;;;;;;;3.53;1.60;;;;;;;27.04;28.34;99419.25;4489781;31;33932;-64
2022/06/23 08:04:03;;;;;;;3.62;1.60;;;;;;;27.33;27.60;99420.38;4474428;31;32982;-62
2022/06/23 08:06:33;;;;;;;3.05;1.58;;;;;;;27.58;27.61;99420.25;4502147;31;33784;-63
2022/06/23 08:09:07;;;;;;;3.00;1.58;;;;;;;27.75;26.14;99418.50;4498938;31;33942;-65
2022/06/23 08:14:50;;;;;;;4.35;1.60;;;;;;;27.03;27.94;99423.03;4485673;31;32209;-61
2022/06/23 08:17:19;;;;;;;6.80;1.60;;;;;;;27.61;28.44;99423.38;4488428;31;34026;-65
2022/06/23 08:19:57;;;;;;;3.40;1.35;;;;;;;27.78;27.93;99423.56;4485427;31;32858;-66
2022/06/23 08:22:32;;;;;;;5.43;1.45;;;;;;;28.11;26.51;99419.44;4488530;31;33244;-62
2022/06/23 08:25:03;;;;;;;3.65;1.65;;;;;;;28.04;26.42;99416.81;4487017;31;33377;-63
2022/06/23 08:27:52;;;;;;;3.90;1.70;;;;;;;27.23;26.75;99417.34;4498521;31;35224;-63
2022/06/23 08:30:21;;;;;;;3.55;1.60;;;;;;;27.43;27.09;99423.41;4492861;31;33804;-64
2022/06/23 08:32:51;;;;;;;4.43;1.80;;;;;;;27.71;27.27;99419.22;4481191;31;33744;-63
2022/06/23 08:35:36;;;;;;;3.70;1.60;;;;;;;27.95;26.67;99422.91;4499389;31;33119;-65
2022/06/23 08:38:08;;;;;;;4.45;1.70;;;;;;;27.60;27.11;99420.84;4487431;31;33469;-62
2022/06/23 08:41:03;;;;;;;2.37;1.37;;;;;;;27.79;26.48;99425.25;4500534;31;34003;-64
2022/06/23 08:43:40;;;;;;;3.95;1.60;;;;;;;28.02;25.92;99418.12;4498920;31;32580;-64
2022/06/23 08:46:34;;;;;;;3.20;1.40;;;;;;;27.95;27.21;99412.72;4496327;31;31972;-63
2022/06/23 08:49:19;;;;;;;6.40;1.70;;;;;;;28.26;26.19;99410.75;4500587;31;32887;-62
2022/06/23 08:52:02;;;;;;;2.95;1.48;;;;;;;28.26;26.74;99422.59;4498692;31;32845;-65
2022/06/23 08:54:38;;;;;;;3.25;1.30;;;;;;;28.13;25.26;99424.72;4482332;31;33300;-66
2022/06/23 08:57:24;;;;;;;4.53;1.73;;;;;;;28.45;26.70;99419.78;4485307;32;34501;-63
2022/06/23 08:59:52;;;;;;;5.70;1.60;;;;;;;28.76;25.34;99413.87;4487346;31;33822;-65
2022/06/23 09:02:37;;;;;;;3.97;1.60;;;;;;;28.90;25.03;99425.47;4494519;31;32698;-65
2022/06/23 09:05:36;;;;;;;3.35;1.55;;;;;;;28.76;25.99;99421.28;4489149;31;35592;-62
2022/06/23 09:08:45;;;;;;;7.45;1.80;;;;;;;28.96;25.23;99413.50;4499548;31;31747;-64
2022/06/23 09:11:47;;;;;;;4.37;1.30;;;;;;;28.81;24.61;99413.16;4478000;31;33595;-62
2022/06/23 09:14:33;;;;;;;4.80;1.40;;;;;;;28.73;25.16;99419.00;4482257;31;34125;-65
2022/06/23 09:17:12;;;;;;;2.33;1.25;;;;;;;28.79;25.36;99415.28;4494755;31;34973;-63
2022/06/23 09:19:49;;;;;;;4.03;1.60;;;;;;;29.26;24.28;99415.22;4498389;31;32926;-63
2022/06/23 09:22:36;;;;;;;7.20;1.40;;;;;;;29.33;24.54;99406.81;4499147;31;34088;-63
2022/06/23 09:25:23;;;;;;;3.55;1.60;;;;;;;29.65;24.17;99415.47;4499792;31;34364;-65
2022/06/23 09:28:29;;;;;;;5.87;1.67;;;;;;;29.38;24.86;99409.69;4493999;31;33621;-65
2022/06/23 09:31:23;;;;;;;9.70;2.45;;;;;;;29.71;23.48;99408.94;4486499;31;34861;-65
2022/06/23 09:34:02;;;;;;;4.28;2.75;;;;;;;29.88;23.12;99408.97;4474362;31;34952;-64
2022/06/23 09:36:48;;;;;;;6.40;1.77;;;;;;;29.55;23.83;99402.28;4497800;31;33860;-63
2022/06/23 09:39:47;;;;;;;2.85;1.25;;;;;;;29.54;23.63;99408.88;4491086;31;32753;-64
2022/06/23 09:42:20;;;;;;;4.03;1.50;;;;;;;29.84;23.38;99405.87;4472387;31;31985;-63
2022/06/23 09:45:02;;;;;;;4.62;1.50;;;;;;;30.29;23.10;99409.69;4498558;31;33505;-63
2022/06/23 09:47:38;;;;;;;2.62;1.30;;;;;;;30.42;22.38;99408.50;4483821;31;34123;-63
2022/06/23 09:50:13;;;;;;;3.05;1.12;;;;;;;30.41;22.34;99404.91;4495802;31;33740;-67
2022/06/23 09:53:06;;;;;;;4.18;1.60;;;;;;;30.33;22.96;99403.41;4492134;31;33011;-64
2022/06/23 09:56:11;;;;;;;3.47;1.40;;;;;;;30.68;22.40;99398.66;4495601;31;33655;-66
2022/06/23 09:58:57;;;;;;;3.60;1.48;;;;;;;31.34;21.43;99393.22;4500570;31;33439;-64
2022/06/23 10:01:47;;;;;;;3.70;1.42;;;;;;;31.10;21.74;99402.56;4484734;31;33238;-64
2022/06/23 10:04:34;;;;;;;2.20;1.10;;;;;;;31.17;21.97;99402.38;4496628;31;33138;-66
2022/06/23 10:07:14;;;;;;;4.65;1.70;;;;;;;31.77;20.89;99393.09;4488022;31;33958;-65
2022/06/23 10:10:11;;;;;;;2.30;1.23;;;;;;;32.03;21.12;99393.34;4490828;31;32668;-65
2022/06/23 10:12:50;;;;;;;4.80;1.42;;;;;;;31.68;20.58;99394.66;4491611;31;33837;-64
2022/06/23 10:15:35;;;;;;;3.40;1.23;;;;;;;31.49;20.34;99390.59;4500833;31;32263;-68
2022/06/23 10:18:25;;;;;;;7.97;1.70;;;;;;;31.61;20.83;99395.97;4499031;31;34057;-63
2022/06/23 10:21:10;;;;;;;3.42;1.35;;;;;;;31.81;20.08;99395.34;4497512;31;33392;-62
2022/06/23 10:24:05;;;;;;;3.67;1.50;;;;;;;32.07;20.14;99393.66;4492452;31;33753;-62
2022/06/23 10:27:02;;;;;;;2.65;1.30;;;;;;;31.87;20.11;99402.59;4495592;31;34477;-63
2022/06/23 10:29:52;;;;;;;2.83;1.30;;;;;;;32.27;19.69;99401.31;4487163;31;34649;-64
2022/06/23 10:32:33;;;;;;;3.87;1.27;;;;;;;32.62;19.07;99390.50;4486240;31;34051;-62
2022/06/23 10:35:38;;;;;;;3.53;1.30;;;;;;;32.38;19.31;99398.34;4499027;31;32935;-64
2022/06/23 10:38:15;;;;;;;3.72;1.30;;;;;;;32.60;19.50;99397.41;4496573;31;32826;-66
2022/06/23 10:41:25;;;;;;;3.75;1.10;;;;;;;32.72;19.12;99386.13;4483700;31;33472;-64
2022/06/23 10:43:58;;;;;;;2.55;1.33;;;;;;;32.87;18.66;99387.03;4497399;31;35126;-62
2022/06/23 10:46:35;;;;;;;4.00;1.40;;;;;;;32.32;18.75;99385.56;4495577;31;33983;-63
2022/06/23 10:49:31;;;;;;;3.10;1.40;;;;;;;32.35;18.71;99393.31;4485682;31;33129;-66
2022/06/23 10:52:20;;;;;;;2.10;1.12;;;;;;;32.64;19.13;99387.44;4496075;31;34003;-66
2022/06/23 10:55:30;;;;;;;3.65;1.75;;;;;;;32.97;18.14;99375.19;4499424;31;34803;-62
2022/06/23 10:58:22;;;;;;;4.53;1.30;;;;;;;32.88;18.25;99376.78;4489006;31;34651;-63
2022/06/23 11:01:09;;;;;;;3.17;1.30;;;;;;;32.70;18.39;99373.34;4495696;31;33251;-62
2022/06/23 11:04:15;;;;;;;4.72;1.40;;;;;;;32.56;18.96;99382.44;4490322;31;34002;-61
2022/06/23 11:06:56;;;;;;;2.50;1.00;;;;;;;31.88;19.88;99377.47;4494931;31;35271;-65
2022/06/23 11:09:30;;;;;;;5.20;1.25;;;;;;;32.25;18.98;99382.19;4482092;32;32351;-63
2022/06/23 11:12:06;;;;;;;2.47;1.12;;;;;;;32.21;18.97;99376.34;4481776;31;31905;-63
2022/06/23 11:15:03;;;;;;;2.58;1.30;;;;;;;31.83;19.58;99382.91;4483494;32;32675;-62
2022/06/23 11:17:52;;;;;;;2.42;1.02;;;;;;;31.58;20.02;99379.91;4482842;31;34268;-63
2022/06/23 11:20:57;;;;;;;1.70;0.98;;;;;;;31.41;19.91;99382.78;4491807;31;33678;-63
2022/06/23 11:23:40;;;;;;;2.67;1.20;;;;;;;31.46;19.13;99380.91;4494595;31;34193;-62
2022/06/23 11:26:45;;;;;;;5.87;1.48;;;;;;;31.27;20.07;99380.41;4488715;31;33840;-61
2022/06/23 11:29:31;;;;;;;2.67;1.48;;;;;;;31.76;19.54;99379.53;4486208;31;34128;-66
2022/06/23 11:32:18;;;;;;;3.37;1.33;;;;;;;31.82;20.22;99377.66;4488966;31;33823;-62
2022/06/23 11:35:07;;;;;;;4.35;1.30;;;;;;;32.19;19.81;99373.00;4482950;31;31977;-61
2022/06/23 11:38:06;;;;;;;2.75;1.15;;;;;;;31.53;20.39;99370.47;4477464;31;33822;-62
2022/06/23 11:40:56;;;;;;;4.30;1.75;;;;;;;32.24;20.52;99375.00;4499093;31;34030;-64
2022/06/23 11:43:45;;;;;;;3.65;1.10;;;;;;;32.41;19.14;99375.66;4495329;31;33881;-61
2022/06/23 11:46:52;;;;;;;3.20;1.30;;;;;;;32.14;18.91;99372.16;4483661;31;31464;-63
2022/06/23 11:49:41;;;;;;;2.62;1.10;;;;;;;32.07;20.27;99360.44;4493938;31;32104;-63
2022/06/23 11:52:28;;;;;;;2.70;1.30;;;;;;;31.62;20.66;99372.75;4496341;31;33823;-64
2022/06/23 11:55:08;;;;;;;2.45;0.98;;;;;;;32.11;19.08;99369.91;4484870;31;33370;-63
2022/06/23 11:57:57;;;;;;;2.78;1.20;;;;;;;31.32;20.55;99368.53;4485157;31;32084;-62
2022/06/23 12:00:33;;;;;;;5.55;1.17;;;;;;;31.22;21.01;99383.09;4493546;31;34048;-62
2022/06/23 12:03:45;;;;;;;2.45;1.25;;;;;;;32.16;19.50;99379.06;4496762;31;32526;-62
2022/06/23 12:06:27;;;;;;;5.05;1.80;;;;;;;31.43;20.16;99380.56;4482112;31;33709;-61
2022/06/23 12:09:06;;;;;;;2.87;1.20;;;;;;;31.94;19.73;99378.34;4494453;31;32956;-62
2022/06/23 12:11:37;;;;;;;3.00;1.05;;;;;;;31.88;18.74;99373.81;4491167;31;33980;-62
2022/06/23 12:14:08;;;;;;;2.22;1.00;;;;;;;31.88;18.74;99379.34;4495721;31;32858;-65
2022/06/23 12:16:54;;;;;;;2.55;1.17;;;;;;;32.06;18.98;99378.16;4497046;31;34992;-67
2022/06/23 12:19:27;;;;;;;2.22;1.17;;;;;;;31.78;18.93;99378.19;4475574;31;32341;-61
2022/06/23 12:22:04;;;;;;;3.35;1.40;;;;;;;31.53;19.17;99384.31;4500046;31;34020;-62
2022/06/23 12:24:53;;;;;;;3.10;0.90;;;;;;;31.44;19.59;99382.25;4485356;31;32977;-63
2022/06/23 12:27:26;;;;;;;3.28;1.30;;;;;;;30.66;20.48;99387.88;4488381;31;33786;-62
2022/06/23 12:30:05;;;;;;;2.85;1.10;;;;;;;31.12;19.16;99373.84;4477707;32;31910;-61
2022/06/23 12:32:57;;;;;;;3.45;1.10;;;;;;;30.30;19.98;99383.75;4490926;31;34038;-62
2022/06/23 12:35:34;;;;;;;2.90;1.23;;;;;;;30.96;19.46;99379.19;4488806;31;34270;-65
2022/06/23 12:38:06;;;;;;;2.67;1.25;;;;;;;30.83;19.38;99376.81;4490842;31;33783;-64
2022/06/23 12:40:40;;;;;;;1.65;0.88;;;;;;;30.91;20.01;99372.75;4500230;31;34519;-61
2022/06/23 12:43:11;;;;;;;2.50;1.25;;;;;;;30.85;19.99;99372.72;4489714;31;35182;-65
2022/06/23 12:46:10;;;;;;;3.78;1.33;;;;;;;30.98;19.16;99377.00;4495623;31;32401;-63
2022/06/23 12:48:43;;;;;;;3.55;1.17;;;;;;;31.79;18.79;99377.09;4498846;31;34070;-61
2022/06/23 12:51:36;;;;;;;2.37;1.10;;;;;;;31.06;18.96;99365.50;4500599;31;34130;-63
2022/06/23 12:54:19;;;;;;;2.00;1.02;;;;;;;31.93;18.13;99360.91;4479700;31;32240;-64